PBD433 UUWW-USPP
Flight info
| Callsign | PBD433 |
|---|---|
| Flight time | 1h 38m |
| Altitude | 35000 |
| Route | OLMUN3X OLMUN T629 IPSIL T830 LAMGU N604 OGSIN P983 SUMOM SUMOM1F |
| Aircraft | B738/M-SDE2E3FGHIRWXY/LB1 |
Departure
| Time | 2026-04-23 14:11 |
|---|---|
| Airport | Vnukovo International Airport (UUWW) |
Arrival
| Time | 2026-04-23 15:49 |
|---|---|
| Airport | Perm International Airport (USPP) |
| Time | Latitude | Longitude | Altitude | Speed | Heading |
|---|---|---|---|---|---|
| 2026-04-23 13:41 | 55.60037 | 37.27923 | 693 ft | 0 kts | 24° |
| 2026-04-23 14:03 | 55.60038 | 37.27924 | 693 ft | 1 kts | 24° |
| 2026-04-23 14:04 | 55.60071 | 37.27950 | 691 ft | 7 kts | 21° |
| 2026-04-23 14:04 | 55.60108 | 37.27915 | 692 ft | 7 kts | 280° |
| 2026-04-23 14:04 | 55.60087 | 37.27839 | 691 ft | 8 kts | 226° |
| 2026-04-23 14:04 | 55.60038 | 37.27761 | 686 ft | 11 kts | 212° |
| 2026-04-23 14:05 | 55.59989 | 37.27692 | 691 ft | 8 kts | 228° |
| 2026-04-23 14:05 | 55.59956 | 37.27618 | 693 ft | 7 kts | 246° |
| 2026-04-23 14:05 | 55.59928 | 37.27548 | 691 ft | 7 kts | 228° |
| 2026-04-23 14:05 | 55.59879 | 37.27457 | 686 ft | 14 kts | 226° |
| 2026-04-23 14:06 | 55.59792 | 37.27297 | 684 ft | 20 kts | 226° |
| 2026-04-23 14:06 | 55.59694 | 37.27116 | 686 ft | 20 kts | 226° |
| 2026-04-23 14:06 | 55.59599 | 37.26939 | 683 ft | 19 kts | 226° |
| 2026-04-23 14:06 | 55.59536 | 37.26796 | 686 ft | 14 kts | 241° |
| 2026-04-23 14:07 | 55.59498 | 37.26640 | 691 ft | 14 kts | 248° |
| 2026-04-23 14:07 | 55.59401 | 37.26214 | 688 ft | 23 kts | 248° |
| 2026-04-23 14:07 | 55.59343 | 37.25957 | 690 ft | 22 kts | 248° |
| 2026-04-23 14:08 | 55.59288 | 37.25711 | 690 ft | 22 kts | 248° |
| 2026-04-23 14:08 | 55.59234 | 37.25468 | 686 ft | 21 kts | 249° |
| 2026-04-23 14:08 | 55.59182 | 37.25232 | 690 ft | 20 kts | 249° |
| 2026-04-23 14:08 | 55.59130 | 37.25005 | 689 ft | 20 kts | 248° |
| 2026-04-23 14:09 | 55.59081 | 37.24783 | 687 ft | 19 kts | 249° |
| 2026-04-23 14:09 | 55.59034 | 37.24576 | 685 ft | 15 kts | 247° |
| 2026-04-23 14:09 | 55.58966 | 37.24511 | 682 ft | 13 kts | 155° |
| 2026-04-23 14:09 | 55.58889 | 37.24586 | 687 ft | 12 kts | 152° |
| 2026-04-23 14:10 | 55.58827 | 37.24652 | 695 ft | 8 kts | 123° |
| 2026-04-23 14:10 | 55.58830 | 37.24701 | 696 ft | 0 kts | 68° |
| 2026-04-23 14:10 | 55.58831 | 37.24705 | 696 ft | 2 kts | 68° |
| 2026-04-23 14:10 | 55.58906 | 37.25036 | 693 ft | 66 kts | 68° |
| 2026-04-23 14:11 | 55.59162 | 37.26177 | 689 ft | 132 kts | 68° |
| 2026-04-23 14:11 | 55.59570 | 37.28006 | 732 ft | 183 kts | 68° |
| 2026-04-23 14:11 | 55.60031 | 37.30115 | 1488 ft | 184 kts | 62° |
| 2026-04-23 14:11 | 55.60508 | 37.32203 | 2493 ft | 180 kts | 61° |
| 2026-04-23 14:12 | 55.61000 | 37.34325 | 3051 ft | 192 kts | 61° |
| 2026-04-23 14:12 | 55.61524 | 37.36556 | 3592 ft | 200 kts | 62° |
| 2026-04-23 14:12 | 55.61827 | 37.38966 | 4264 ft | 209 kts | 87° |
| 2026-04-23 14:12 | 55.61434 | 37.41526 | 4789 ft | 228 kts | 113° |
| 2026-04-23 14:13 | 55.60358 | 37.43884 | 4945 ft | 265 kts | 131° |
| 2026-04-23 14:13 | 55.59301 | 37.46523 | 5590 ft | 264 kts | 108° |
| 2026-04-23 14:13 | 55.58722 | 37.49565 | 6452 ft | 261 kts | 102° |
| 2026-04-23 14:13 | 55.58196 | 37.52701 | 6837 ft | 269 kts | 102° |
| 2026-04-23 14:14 | 55.57645 | 37.55900 | 6988 ft | 276 kts | 103° |
| 2026-04-23 14:14 | 55.57099 | 37.59161 | 7021 ft | 275 kts | 97° |
| 2026-04-23 14:14 | 55.57164 | 37.62459 | 7482 ft | 270 kts | 71° |
| 2026-04-23 14:14 | 55.57910 | 37.65457 | 8335 ft | 265 kts | 57° |
| 2026-04-23 14:15 | 55.58842 | 37.68252 | 9170 ft | 266 kts | 56° |
| 2026-04-23 14:15 | 55.59799 | 37.71069 | 9843 ft | 270 kts | 56° |
| 2026-04-23 14:15 | 55.60760 | 37.73922 | 10565 ft | 271 kts | 57° |
| 2026-04-23 14:15 | 55.61729 | 37.76834 | 11163 ft | 278 kts | 58° |
| 2026-04-23 14:16 | 55.62719 | 37.79838 | 11744 ft | 286 kts | 59° |
| 2026-04-23 14:16 | 55.63716 | 37.82875 | 12364 ft | 291 kts | 59° |
| 2026-04-23 14:16 | 55.64591 | 37.86159 | 13078 ft | 295 kts | 77° |
| 2026-04-23 14:16 | 55.64668 | 37.89740 | 13668 ft | 299 kts | 99° |
| 2026-04-23 14:17 | 55.64239 | 37.93343 | 14333 ft | 300 kts | 103° |
| 2026-04-23 14:17 | 55.63754 | 37.96966 | 14958 ft | 304 kts | 104° |
| 2026-04-23 14:17 | 55.63263 | 38.00625 | 15591 ft | 307 kts | 104° |
| 2026-04-23 14:17 | 55.62777 | 38.04330 | 16236 ft | 311 kts | 104° |
| 2026-04-23 14:18 | 55.62293 | 38.08073 | 16866 ft | 314 kts | 104° |
| 2026-04-23 14:18 | 55.61807 | 38.11846 | 17498 ft | 316 kts | 105° |
| 2026-04-23 14:18 | 55.61316 | 38.15668 | 18026 ft | 321 kts | 105° |
| 2026-04-23 14:18 | 55.60809 | 38.19633 | 18150 ft | 339 kts | 105° |
| 2026-04-23 14:19 | 55.60283 | 38.23769 | 18455 ft | 349 kts | 105° |
| 2026-04-23 14:19 | 55.59749 | 38.27974 | 18954 ft | 352 kts | 105° |
| 2026-04-23 14:19 | 55.59209 | 38.32218 | 19498 ft | 355 kts | 105° |
| 2026-04-23 14:19 | 55.58661 | 38.36483 | 20035 ft | 357 kts | 105° |
| 2026-04-23 14:20 | 55.58111 | 38.40781 | 20547 ft | 361 kts | 104° |
| 2026-04-23 14:20 | 55.58018 | 38.45252 | 20974 ft | 372 kts | 83° |
| 2026-04-23 14:20 | 55.58856 | 38.49622 | 21454 ft | 381 kts | 64° |
| 2026-04-23 14:20 | 55.60212 | 38.53670 | 21952 ft | 385 kts | 61° |
| 2026-04-23 14:21 | 55.61621 | 38.57735 | 22361 ft | 390 kts | 61° |
| 2026-04-23 14:21 | 55.63026 | 38.61869 | 22800 ft | 394 kts | 62° |
| 2026-04-23 14:21 | 55.64427 | 38.66067 | 23205 ft | 397 kts | 62° |
| 2026-04-23 14:21 | 55.65826 | 38.70299 | 23606 ft | 399 kts | 62° |
| 2026-04-23 14:22 | 55.67229 | 38.74563 | 24010 ft | 402 kts | 62° |
| 2026-04-23 14:22 | 55.68643 | 38.78866 | 24446 ft | 405 kts | 62° |
| 2026-04-23 14:22 | 55.70065 | 38.83193 | 24877 ft | 407 kts | 62° |
| 2026-04-23 14:22 | 55.71474 | 38.87487 | 25275 ft | 410 kts | 62° |
| 2026-04-23 14:23 | 55.72910 | 38.91869 | 25674 ft | 413 kts | 61° |
| 2026-04-23 14:23 | 55.74604 | 38.96021 | 26046 ft | 418 kts | 49° |
| 2026-04-23 14:23 | 55.76621 | 38.99776 | 26468 ft | 421 kts | 46° |
| 2026-04-23 14:23 | 55.78694 | 39.03472 | 26860 ft | 424 kts | 46° |
| 2026-04-23 14:24 | 55.80763 | 39.07218 | 27244 ft | 426 kts | 47° |
| 2026-04-23 14:24 | 55.82816 | 39.11044 | 27617 ft | 429 kts | 47° |
| 2026-04-23 14:24 | 55.84866 | 39.14925 | 27980 ft | 432 kts | 47° |
| 2026-04-23 14:24 | 55.86933 | 39.18880 | 28087 ft | 441 kts | 47° |
| 2026-04-23 14:25 | 55.91189 | 39.27038 | 28237 ft | 458 kts | 47° |
| 2026-04-23 14:25 | 55.95755 | 39.35271 | 28354 ft | 474 kts | 43° |
| 2026-04-23 14:26 | 56.00696 | 39.43318 | 28600 ft | 486 kts | 43° |
| 2026-04-23 14:26 | 56.03187 | 39.47420 | 28905 ft | 487 kts | 43° |
| 2026-04-23 14:26 | 56.05658 | 39.51547 | 29375 ft | 485 kts | 43° |
| 2026-04-23 14:27 | 56.07997 | 39.55859 | 29754 ft | 483 kts | 50° |
| 2026-04-23 14:27 | 56.09939 | 39.60652 | 30069 ft | 481 kts | 57° |
| 2026-04-23 14:27 | 56.11738 | 39.65699 | 30405 ft | 480 kts | 58° |
| 2026-04-23 14:27 | 56.13501 | 39.70768 | 30717 ft | 479 kts | 58° |
| 2026-04-23 14:28 | 56.15263 | 39.75842 | 31022 ft | 478 kts | 58° |
| 2026-04-23 14:28 | 56.17028 | 39.80893 | 31327 ft | 478 kts | 58° |
| 2026-04-23 14:28 | 56.18802 | 39.85927 | 31617 ft | 478 kts | 58° |
| 2026-04-23 14:28 | 56.20586 | 39.90964 | 31898 ft | 477 kts | 57° |
| 2026-04-23 14:29 | 56.22367 | 39.95984 | 32174 ft | 477 kts | 57° |
| 2026-04-23 14:29 | 56.24152 | 40.01018 | 32460 ft | 477 kts | 57° |
| 2026-04-23 14:29 | 56.25931 | 40.06045 | 32777 ft | 476 kts | 57° |
| 2026-04-23 14:29 | 56.27703 | 40.11063 | 33065 ft | 475 kts | 57° |
| 2026-04-23 14:30 | 56.29475 | 40.16095 | 33339 ft | 475 kts | 57° |
| 2026-04-23 14:30 | 56.31238 | 40.21112 | 33567 ft | 474 kts | 57° |
| 2026-04-23 14:30 | 56.32995 | 40.26126 | 33811 ft | 473 kts | 57° |
| 2026-04-23 14:30 | 56.34748 | 40.31137 | 34050 ft | 472 kts | 57° |
| 2026-04-23 14:31 | 56.36493 | 40.36137 | 34274 ft | 471 kts | 57° |
| 2026-04-23 14:31 | 56.38230 | 40.41125 | 34345 ft | 468 kts | 58° |
| 2026-04-23 14:31 | 56.41677 | 40.51049 | 34370 ft | 466 kts | 58° |
| 2026-04-23 14:32 | 56.45108 | 40.61050 | 34384 ft | 471 kts | 61° |
| 2026-04-23 14:32 | 56.47496 | 40.72149 | 34389 ft | 477 kts | 75° |
| 2026-04-23 14:33 | 56.49188 | 40.83804 | 34372 ft | 480 kts | 76° |
| 2026-04-23 14:33 | 56.50856 | 40.95468 | 34355 ft | 476 kts | 76° |
| 2026-04-23 14:34 | 56.52537 | 41.06948 | 34356 ft | 470 kts | 75° |
| 2026-04-23 14:34 | 56.54224 | 41.18377 | 34359 ft | 469 kts | 75° |
| 2026-04-23 14:35 | 56.55889 | 41.29714 | 34363 ft | 469 kts | 76° |
| 2026-04-23 14:35 | 56.57554 | 41.41138 | 34355 ft | 469 kts | 76° |
| 2026-04-23 14:36 | 56.59210 | 41.52599 | 34369 ft | 470 kts | 76° |
| 2026-04-23 14:36 | 56.60859 | 41.64098 | 34351 ft | 471 kts | 76° |
| 2026-04-23 14:37 | 56.62503 | 41.75642 | 34358 ft | 473 kts | 76° |
| 2026-04-23 14:37 | 56.64139 | 41.87219 | 34351 ft | 474 kts | 76° |
| 2026-04-23 14:38 | 56.65769 | 41.98833 | 34351 ft | 475 kts | 76° |
| 2026-04-23 14:38 | 56.67379 | 42.10399 | 34353 ft | 475 kts | 76° |
| 2026-04-23 14:39 | 56.68991 | 42.22060 | 34348 ft | 476 kts | 76° |
| 2026-04-23 14:39 | 56.70592 | 42.33737 | 34352 ft | 475 kts | 77° |
| 2026-04-23 14:40 | 56.72185 | 42.45432 | 34345 ft | 477 kts | 77° |
| 2026-04-23 14:40 | 56.73769 | 42.57129 | 34350 ft | 475 kts | 76° |
| 2026-04-23 14:41 | 56.75585 | 42.68701 | 34356 ft | 475 kts | 73° |
| 2026-04-23 14:41 | 56.77527 | 42.80206 | 34356 ft | 474 kts | 73° |
| 2026-04-23 14:42 | 56.79439 | 42.91726 | 34345 ft | 474 kts | 74° |
| 2026-04-23 14:42 | 56.81302 | 43.03234 | 34354 ft | 473 kts | 75° |
| 2026-04-23 14:43 | 56.83141 | 43.14754 | 34359 ft | 472 kts | 75° |
| 2026-04-23 14:43 | 56.84965 | 43.26270 | 34362 ft | 472 kts | 75° |
| 2026-04-23 14:44 | 56.86778 | 43.37790 | 34370 ft | 472 kts | 75° |
| 2026-04-23 14:44 | 56.88572 | 43.49253 | 34371 ft | 472 kts | 75° |
| 2026-04-23 14:45 | 56.90380 | 43.60890 | 34371 ft | 473 kts | 75° |
| 2026-04-23 14:45 | 56.92156 | 43.72398 | 34369 ft | 474 kts | 75° |
| 2026-04-23 14:46 | 56.93937 | 43.84022 | 34377 ft | 474 kts | 75° |
| 2026-04-23 14:46 | 56.95708 | 43.95661 | 34379 ft | 475 kts | 75° |
| 2026-04-23 14:47 | 56.97475 | 44.07353 | 34380 ft | 476 kts | 75° |
| 2026-04-23 14:47 | 56.99231 | 44.19056 | 34384 ft | 476 kts | 75° |
| 2026-04-23 14:48 | 57.00977 | 44.30779 | 34388 ft | 477 kts | 76° |
| 2026-04-23 14:48 | 57.02422 | 44.40546 | 34393 ft | 477 kts | 76° |
| 2026-04-23 14:49 | 57.04154 | 44.52333 | 34387 ft | 478 kts | 76° |
| 2026-04-23 14:49 | 57.05872 | 44.64106 | 34392 ft | 477 kts | 76° |
| 2026-04-23 14:50 | 57.07579 | 44.75889 | 34393 ft | 477 kts | 76° |
| 2026-04-23 14:50 | 57.09271 | 44.87664 | 34386 ft | 477 kts | 76° |
| 2026-04-23 14:51 | 57.10955 | 44.99463 | 34393 ft | 476 kts | 76° |
| 2026-04-23 14:51 | 57.12625 | 45.11253 | 34400 ft | 476 kts | 76° |
| 2026-04-23 14:52 | 57.14283 | 45.23051 | 34399 ft | 476 kts | 76° |
| 2026-04-23 14:52 | 57.15930 | 45.34856 | 34403 ft | 476 kts | 77° |
| 2026-04-23 14:53 | 57.17566 | 45.46672 | 34407 ft | 476 kts | 77° |
| 2026-04-23 14:53 | 57.19193 | 45.58520 | 34412 ft | 476 kts | 77° |
| 2026-04-23 14:54 | 57.20809 | 45.70376 | 34404 ft | 477 kts | 77° |
| 2026-04-23 14:54 | 57.22403 | 45.82162 | 34407 ft | 477 kts | 77° |
| 2026-04-23 14:55 | 57.23999 | 45.94052 | 34415 ft | 477 kts | 77° |
| 2026-04-23 14:55 | 57.25585 | 46.05969 | 34421 ft | 477 kts | 77° |
| 2026-04-23 14:56 | 57.27159 | 46.17884 | 34425 ft | 477 kts | 77° |
| 2026-04-23 14:56 | 57.28722 | 46.29813 | 34419 ft | 477 kts | 77° |
| 2026-04-23 14:57 | 57.30274 | 46.41754 | 34437 ft | 478 kts | 77° |
| 2026-04-23 14:57 | 57.31814 | 46.53704 | 34438 ft | 478 kts | 77° |
| 2026-04-23 14:58 | 57.33344 | 46.65657 | 34440 ft | 478 kts | 78° |
| 2026-04-23 14:58 | 57.34938 | 46.77618 | 34432 ft | 478 kts | 73° |
| 2026-04-23 14:59 | 57.37525 | 46.88879 | 34443 ft | 479 kts | 65° |
| 2026-04-23 14:59 | 57.40343 | 47.00059 | 34440 ft | 479 kts | 65° |
| 2026-04-23 15:00 | 57.43106 | 47.11308 | 34441 ft | 479 kts | 66° |
| 2026-04-23 15:00 | 57.45817 | 47.22580 | 34443 ft | 479 kts | 66° |
| 2026-04-23 15:01 | 57.48520 | 47.33879 | 34446 ft | 478 kts | 66° |
| 2026-04-23 15:01 | 57.51215 | 47.45183 | 34447 ft | 478 kts | 66° |
| 2026-04-23 15:02 | 57.53906 | 47.56507 | 34445 ft | 478 kts | 67° |
| 2026-04-23 15:02 | 57.56584 | 47.67834 | 34459 ft | 478 kts | 67° |
| 2026-04-23 15:03 | 57.59248 | 47.79166 | 34464 ft | 478 kts | 67° |
| 2026-04-23 15:03 | 57.61907 | 47.90534 | 34464 ft | 478 kts | 67° |
| 2026-04-23 15:04 | 57.64550 | 48.01897 | 34464 ft | 477 kts | 67° |
| 2026-04-23 15:04 | 57.67183 | 48.13273 | 34468 ft | 477 kts | 67° |
| 2026-04-23 15:05 | 57.69807 | 48.24676 | 34469 ft | 477 kts | 67° |
| 2026-04-23 15:05 | 57.72423 | 48.36097 | 34473 ft | 477 kts | 67° |
| 2026-04-23 15:06 | 57.74859 | 48.47551 | 34470 ft | 477 kts | 75° |
| 2026-04-23 15:06 | 57.75976 | 48.59732 | 34485 ft | 475 kts | 84° |
| 2026-04-23 15:07 | 57.76764 | 48.72002 | 34485 ft | 475 kts | 84° |
| 2026-04-23 15:07 | 57.77575 | 48.84297 | 34489 ft | 475 kts | 84° |
| 2026-04-23 15:08 | 57.78416 | 48.96579 | 34495 ft | 475 kts | 84° |
| 2026-04-23 15:09 | 57.79678 | 49.15015 | 34497 ft | 476 kts | 84° |
| 2026-04-23 15:09 | 57.80502 | 49.27318 | 34498 ft | 476 kts | 84° |
| 2026-04-23 15:10 | 57.81179 | 49.37568 | 34503 ft | 476 kts | 84° |
| 2026-04-23 15:10 | 57.82115 | 49.51977 | 34505 ft | 476 kts | 84° |
| 2026-04-23 15:11 | 57.82902 | 49.64303 | 34513 ft | 476 kts | 84° |
| 2026-04-23 15:11 | 57.83673 | 49.76551 | 34514 ft | 476 kts | 84° |
| 2026-04-23 15:12 | 57.84437 | 49.88884 | 34520 ft | 476 kts | 84° |
| 2026-04-23 15:12 | 57.85191 | 50.01229 | 34518 ft | 475 kts | 84° |
| 2026-04-23 15:13 | 57.85933 | 50.13561 | 34527 ft | 475 kts | 84° |
| 2026-04-23 15:13 | 57.86665 | 50.25886 | 34530 ft | 475 kts | 84° |
| 2026-04-23 15:14 | 57.87387 | 50.38234 | 34530 ft | 475 kts | 85° |
| 2026-04-23 15:14 | 57.88095 | 50.50550 | 34536 ft | 474 kts | 85° |
| 2026-04-23 15:15 | 57.88787 | 50.62810 | 34535 ft | 474 kts | 85° |
| 2026-04-23 15:15 | 57.89472 | 50.75156 | 34540 ft | 474 kts | 85° |
| 2026-04-23 15:16 | 57.90145 | 50.87505 | 34542 ft | 474 kts | 85° |
| 2026-04-23 15:16 | 57.90806 | 50.99854 | 34549 ft | 475 kts | 85° |
| 2026-04-23 15:17 | 57.91455 | 51.12198 | 34553 ft | 475 kts | 85° |
| 2026-04-23 15:17 | 57.92093 | 51.24577 | 34558 ft | 475 kts | 85° |
| 2026-04-23 15:18 | 57.92719 | 51.36947 | 34556 ft | 475 kts | 85° |
| 2026-04-23 15:18 | 57.93334 | 51.49325 | 34562 ft | 475 kts | 85° |
| 2026-04-23 15:19 | 57.93939 | 51.61635 | 34563 ft | 475 kts | 85° |
| 2026-04-23 15:19 | 57.94539 | 51.74028 | 34566 ft | 476 kts | 85° |
| 2026-04-23 15:20 | 57.95033 | 51.84420 | 34569 ft | 475 kts | 85° |
| 2026-04-23 15:20 | 57.95703 | 51.98844 | 34573 ft | 475 kts | 85° |
| 2026-04-23 15:21 | 57.96269 | 52.11253 | 34574 ft | 475 kts | 85° |
| 2026-04-23 15:21 | 57.96702 | 52.20989 | 34576 ft | 475 kts | 86° |
| 2026-04-23 15:22 | 57.97135 | 52.30915 | 34573 ft | 475 kts | 86° |
| 2026-04-23 15:22 | 57.97403 | 52.37140 | 34335 ft | 478 kts | 86° |
| 2026-04-23 15:22 | 57.97668 | 52.43363 | 34107 ft | 475 kts | 86° |
| 2026-04-23 15:22 | 57.97929 | 52.49546 | 33884 ft | 472 kts | 86° |
| 2026-04-23 15:23 | 57.98185 | 52.55672 | 33647 ft | 464 kts | 86° |
| 2026-04-23 15:23 | 57.98432 | 52.61672 | 33367 ft | 454 kts | 86° |
| 2026-04-23 15:23 | 57.98669 | 52.67642 | 33119 ft | 464 kts | 86° |
| 2026-04-23 15:23 | 57.98914 | 52.73740 | 32406 ft | 467 kts | 85° |
| 2026-04-23 15:24 | 57.99157 | 52.79825 | 31783 ft | 465 kts | 85° |
| 2026-04-23 15:24 | 57.99400 | 52.85955 | 31228 ft | 468 kts | 85° |
| 2026-04-23 15:24 | 57.99637 | 52.92035 | 30751 ft | 464 kts | 85° |
| 2026-04-23 15:24 | 57.99869 | 52.98076 | 30266 ft | 459 kts | 85° |
| 2026-04-23 15:25 | 58.00096 | 53.04062 | 29799 ft | 455 kts | 85° |
| 2026-04-23 15:25 | 58.00317 | 53.09979 | 29262 ft | 451 kts | 85° |
| 2026-04-23 15:25 | 58.00533 | 53.15830 | 28760 ft | 444 kts | 85° |
| 2026-04-23 15:25 | 58.00728 | 53.21592 | 28277 ft | 437 kts | 86° |
| 2026-04-23 15:26 | 58.00905 | 53.27269 | 27809 ft | 431 kts | 86° |
| 2026-04-23 15:26 | 58.01083 | 53.32884 | 27339 ft | 426 kts | 85° |
| 2026-04-23 15:26 | 58.01264 | 53.38429 | 26871 ft | 422 kts | 85° |
| 2026-04-23 15:26 | 58.01451 | 53.43921 | 26404 ft | 419 kts | 85° |
| 2026-04-23 15:27 | 58.01643 | 53.48920 | 25991 ft | 415 kts | 85° |
| 2026-04-23 15:27 | 58.01853 | 53.54343 | 25530 ft | 413 kts | 85° |
| 2026-04-23 15:27 | 58.02052 | 53.59729 | 25077 ft | 410 kts | 85° |
| 2026-04-23 15:27 | 58.02239 | 53.65069 | 24622 ft | 407 kts | 85° |
| 2026-04-23 15:28 | 58.02417 | 53.70389 | 24185 ft | 404 kts | 85° |
| 2026-04-23 15:28 | 58.02587 | 53.75662 | 23751 ft | 401 kts | 86° |
| 2026-04-23 15:28 | 58.02752 | 53.80895 | 23305 ft | 397 kts | 86° |
| 2026-04-23 15:28 | 58.02915 | 53.86076 | 22807 ft | 394 kts | 86° |
| 2026-04-23 15:29 | 58.03075 | 53.91213 | 22332 ft | 390 kts | 86° |
| 2026-04-23 15:29 | 58.03229 | 53.96282 | 21888 ft | 385 kts | 86° |
| 2026-04-23 15:29 | 58.03381 | 54.01300 | 21483 ft | 380 kts | 86° |
| 2026-04-23 15:29 | 58.03529 | 54.06223 | 21154 ft | 373 kts | 87° |
| 2026-04-23 15:30 | 58.03675 | 54.11085 | 20745 ft | 370 kts | 87° |
| 2026-04-23 15:30 | 58.03821 | 54.15925 | 20321 ft | 368 kts | 87° |
| 2026-04-23 15:30 | 58.03967 | 54.20751 | 19905 ft | 369 kts | 87° |
| 2026-04-23 15:30 | 58.04112 | 54.25594 | 19491 ft | 371 kts | 87° |
| 2026-04-23 15:31 | 58.04251 | 54.30472 | 19095 ft | 374 kts | 88° |
| 2026-04-23 15:31 | 58.04382 | 54.35414 | 18663 ft | 379 kts | 88° |
| 2026-04-23 15:31 | 58.04506 | 54.40392 | 18219 ft | 379 kts | 88° |
| 2026-04-23 15:31 | 58.04627 | 54.45338 | 17769 ft | 377 kts | 88° |
| 2026-04-23 15:32 | 58.04752 | 54.50260 | 17284 ft | 374 kts | 88° |
| 2026-04-23 15:32 | 58.04884 | 54.55152 | 16829 ft | 371 kts | 88° |
| 2026-04-23 15:32 | 58.05024 | 54.59993 | 16412 ft | 368 kts | 88° |
| 2026-04-23 15:32 | 58.05158 | 54.64809 | 15975 ft | 365 kts | 88° |
| 2026-04-23 15:33 | 58.05283 | 54.69571 | 15556 ft | 362 kts | 89° |
| 2026-04-23 15:33 | 58.05402 | 54.74304 | 15147 ft | 360 kts | 89° |
| 2026-04-23 15:33 | 58.05540 | 54.79003 | 14732 ft | 358 kts | 85° |
| 2026-04-23 15:33 | 58.05941 | 54.83625 | 14325 ft | 356 kts | 79° |
| 2026-04-23 15:34 | 58.06499 | 54.88177 | 13921 ft | 354 kts | 77° |
| 2026-04-23 15:34 | 58.07090 | 54.92680 | 13525 ft | 353 kts | 77° |
| 2026-04-23 15:34 | 58.07674 | 54.97163 | 13088 ft | 351 kts | 77° |
| 2026-04-23 15:34 | 58.08239 | 55.01633 | 12656 ft | 349 kts | 78° |
| 2026-04-23 15:35 | 58.08785 | 55.06073 | 12246 ft | 346 kts | 78° |
| 2026-04-23 15:35 | 58.09310 | 55.10439 | 11841 ft | 344 kts | 78° |
| 2026-04-23 15:35 | 58.09831 | 55.14827 | 11462 ft | 341 kts | 78° |
| 2026-04-23 15:35 | 58.10344 | 55.19185 | 11070 ft | 338 kts | 78° |
| 2026-04-23 15:36 | 58.10848 | 55.23496 | 10681 ft | 336 kts | 78° |
| 2026-04-23 15:36 | 58.11351 | 55.27822 | 10303 ft | 334 kts | 78° |
| 2026-04-23 15:36 | 58.11842 | 55.32050 | 10165 ft | 324 kts | 78° |
| 2026-04-23 15:36 | 58.12317 | 55.36150 | 10018 ft | 315 kts | 78° |
| 2026-04-23 15:37 | 58.12777 | 55.40139 | 9882 ft | 306 kts | 78° |
| 2026-04-23 15:37 | 58.13223 | 55.44025 | 9756 ft | 298 kts | 78° |
| 2026-04-23 15:37 | 58.13517 | 55.46588 | 9666 ft | 292 kts | 78° |
| 2026-04-23 15:37 | 58.13937 | 55.50244 | 9524 ft | 285 kts | 78° |
| 2026-04-23 15:38 | 58.14354 | 55.53900 | 9223 ft | 284 kts | 78° |
| 2026-04-23 15:38 | 58.14768 | 55.57545 | 8938 ft | 282 kts | 79° |
| 2026-04-23 15:38 | 58.15178 | 55.61157 | 8662 ft | 280 kts | 79° |
| 2026-04-23 15:38 | 58.15428 | 55.64776 | 8396 ft | 276 kts | 91° |
| 2026-04-23 15:39 | 58.15369 | 55.68391 | 8120 ft | 273 kts | 95° |
| 2026-04-23 15:39 | 58.15238 | 55.71968 | 7843 ft | 272 kts | 96° |
| 2026-04-23 15:39 | 58.15103 | 55.75528 | 7577 ft | 270 kts | 95° |
| 2026-04-23 15:39 | 58.14977 | 55.79066 | 7297 ft | 269 kts | 95° |
| 2026-04-23 15:40 | 58.14861 | 55.82589 | 7029 ft | 267 kts | 95° |
| 2026-04-23 15:40 | 58.14750 | 55.86099 | 6767 ft | 266 kts | 95° |
| 2026-04-23 15:40 | 58.14644 | 55.89584 | 6502 ft | 265 kts | 95° |
| 2026-04-23 15:40 | 58.14540 | 55.93059 | 6232 ft | 264 kts | 95° |
| 2026-04-23 15:41 | 58.14438 | 55.96513 | 5967 ft | 263 kts | 95° |
| 2026-04-23 15:41 | 58.14335 | 55.99962 | 5696 ft | 261 kts | 95° |
| 2026-04-23 15:41 | 58.14234 | 56.03383 | 5445 ft | 260 kts | 95° |
| 2026-04-23 15:41 | 58.14133 | 56.06792 | 5208 ft | 257 kts | 95° |
| 2026-04-23 15:42 | 58.14033 | 56.10109 | 4956 ft | 249 kts | 95° |
| 2026-04-23 15:42 | 58.13936 | 56.13299 | 4858 ft | 234 kts | 95° |
| 2026-04-23 15:42 | 58.13845 | 56.16274 | 4821 ft | 218 kts | 95° |
| 2026-04-23 15:42 | 58.13411 | 56.18876 | 4776 ft | 206 kts | 127° |
| 2026-04-23 15:43 | 58.12465 | 56.20904 | 4731 ft | 207 kts | 138° |
| 2026-04-23 15:43 | 58.11424 | 56.22785 | 4642 ft | 206 kts | 139° |
| 2026-04-23 15:43 | 58.10385 | 56.24641 | 4550 ft | 205 kts | 139° |
| 2026-04-23 15:43 | 58.09349 | 56.26503 | 4456 ft | 205 kts | 138° |
| 2026-04-23 15:44 | 58.08321 | 56.28355 | 4245 ft | 209 kts | 138° |
| 2026-04-23 15:44 | 58.07135 | 56.29812 | 3994 ft | 201 kts | 169° |
| 2026-04-23 15:44 | 58.05804 | 56.29615 | 3810 ft | 192 kts | 205° |
| 2026-04-23 15:44 | 58.04742 | 56.28149 | 3637 ft | 188 kts | 224° |
| 2026-04-23 15:45 | 58.03837 | 56.26395 | 3423 ft | 184 kts | 226° |
| 2026-04-23 15:45 | 58.02976 | 56.24681 | 3245 ft | 175 kts | 226° |
| 2026-04-23 15:45 | 58.02139 | 56.23033 | 3188 ft | 174 kts | 226° |
| 2026-04-23 15:45 | 58.01302 | 56.21398 | 3014 ft | 170 kts | 226° |
| 2026-04-23 15:46 | 58.00497 | 56.19829 | 2791 ft | 163 kts | 226° |
| 2026-04-23 15:46 | 57.99722 | 56.18316 | 2561 ft | 159 kts | 226° |
| 2026-04-23 15:46 | 57.98966 | 56.16843 | 2357 ft | 153 kts | 226° |
| 2026-04-23 15:46 | 57.98242 | 56.15429 | 2143 ft | 148 kts | 226° |
| 2026-04-23 15:47 | 57.97524 | 56.14027 | 1931 ft | 149 kts | 226° |
| 2026-04-23 15:47 | 57.96804 | 56.12621 | 1727 ft | 150 kts | 226° |
| 2026-04-23 15:47 | 57.96079 | 56.11205 | 1504 ft | 149 kts | 226° |
| 2026-04-23 15:47 | 57.95358 | 56.09800 | 1288 ft | 149 kts | 225° |
| 2026-04-23 15:48 | 57.94634 | 56.08384 | 1063 ft | 151 kts | 226° |
| 2026-04-23 15:48 | 57.93903 | 56.06958 | 855 ft | 152 kts | 226° |
| 2026-04-23 15:48 | 57.93171 | 56.05523 | 661 ft | 152 kts | 227° |
| 2026-04-23 15:48 | 57.92449 | 56.04088 | 453 ft | 150 kts | 227° |
| 2026-04-23 15:49 | 57.91763 | 56.02747 | 398 ft | 127 kts | 226° |
| 2026-04-23 15:49 | 57.91250 | 56.01747 | 398 ft | 85 kts | 226° |
| 2026-04-23 15:49 | 57.90946 | 56.01158 | 395 ft | 42 kts | 225° |
| 2026-04-23 15:49 | 57.90806 | 56.00890 | 395 ft | 16 kts | 225° |
| 2026-04-23 15:50 | 57.90748 | 56.00811 | 395 ft | 9 kts | 212° |
| 2026-04-23 15:50 | 57.90733 | 56.00753 | 390 ft | 3 kts | 319° |
| 2026-04-23 15:50 | 57.90753 | 56.00772 | 393 ft | 4 kts | 51° |
| 2026-04-23 15:50 | 57.90784 | 56.00842 | 389 ft | 12 kts | 47° |
| 2026-04-23 15:51 | 57.90860 | 56.00992 | 395 ft | 21 kts | 46° |
| 2026-04-23 15:51 | 57.90969 | 56.01203 | 395 ft | 23 kts | 46° |
| 2026-04-23 15:51 | 57.91078 | 56.01411 | 396 ft | 22 kts | 45° |
| 2026-04-23 15:51 | 57.91172 | 56.01593 | 395 ft | 13 kts | 44° |
| 2026-04-23 15:52 | 57.91254 | 56.01563 | 395 ft | 14 kts | 316° |
| 2026-04-23 15:52 | 57.91320 | 56.01448 | 394 ft | 8 kts | 316° |
| 2026-04-23 15:52 | 57.91321 | 56.01445 | 395 ft | 0 kts | 316° |
| 2026-04-23 15:54 | 57.91321 | 56.01441 | 395 ft | 1 kts | 296° |
| 2026-04-23 15:54 | 57.91335 | 56.01399 | 395 ft | 3 kts | 317° |
| 2026-04-23 15:54 | 57.91342 | 56.01407 | 393 ft | 1 kts | 52° |
| 2026-04-23 15:55 | 57.91337 | 56.01417 | 390 ft | 1 kts | 135° |
| 2026-04-23 15:55 | 57.91307 | 56.01471 | 396 ft | 12 kts | 136° |
| 2026-04-23 15:55 | 57.91234 | 56.01617 | 396 ft | 14 kts | 121° |
| 2026-04-23 15:55 | 57.91264 | 56.01773 | 397 ft | 13 kts | 45° |
| 2026-04-23 15:56 | 57.91335 | 56.01909 | 398 ft | 18 kts | 45° |
| 2026-04-23 15:56 | 57.91438 | 56.02111 | 390 ft | 23 kts | 46° |
| 2026-04-23 15:56 | 57.91547 | 56.02324 | 397 ft | 22 kts | 45° |
| 2026-04-23 15:56 | 57.91642 | 56.02486 | 400 ft | 11 kts | 19° |
| 2026-04-23 15:57 | 57.91711 | 56.02419 | 397 ft | 12 kts | 315° |
| 2026-04-23 15:57 | 57.91773 | 56.02308 | 396 ft | 12 kts | 316° |
| 2026-04-23 15:57 | 57.91823 | 56.02217 | 396 ft | 7 kts | 316° |
| 2026-04-23 15:57 | 57.91859 | 56.02164 | 396 ft | 7 kts | 328° |
| 2026-04-23 15:58 | 57.91896 | 56.02116 | 396 ft | 6 kts | 315° |
| 2026-04-23 15:58 | 57.91912 | 56.02086 | 396 ft | 0 kts | 316° |